createdAt,value
2023-03-24T00:01:50.042Z,99829.34
2023-03-24T00:04:16.885Z,99814.72
2023-03-24T00:06:44.503Z,99823.16
2023-03-24T00:09:11.315Z,99819.81
2023-03-24T00:11:38.348Z,99809.50
2023-03-24T00:14:05.190Z,99808.03
2023-03-24T00:16:34.688Z,99807.53
2023-03-24T00:19:01.501Z,99792.28
2023-03-24T00:21:28.294Z,99788.66
2023-03-24T00:23:55.187Z,99783.88
2023-03-24T00:26:22.101Z,99786.25
2023-03-24T00:28:48.994Z,99770.13
2023-03-24T00:31:15.956Z,99775.91
2023-03-24T00:33:42.878Z,99777.06
2023-03-24T00:36:12.804Z,99773.41
2023-03-24T00:38:39.625Z,99770.22
2023-03-24T00:41:07.571Z,99751.75
2023-03-24T00:43:34.418Z,99763.09
2023-03-24T00:46:01.873Z,99746.72
2023-03-24T00:48:28.728Z,99739.56
2023-03-24T00:50:55.509Z,99738.88
2023-03-24T00:53:23.243Z,99736.16
2023-03-24T00:55:50.075Z,99736.16
2023-03-24T00:58:21.608Z,99727.06
2023-03-24T01:00:48.566Z,99726.03
2023-03-24T01:03:15.434Z,99723.25
2023-03-24T01:05:42.380Z,99714.91
2023-03-24T01:08:10.074Z,99721.75
2023-03-24T01:10:42.492Z,99720.59
2023-03-24T01:13:10.219Z,99715.34
2023-03-24T01:15:37.018Z,99711.47
2023-03-24T01:18:03.870Z,99720.56
2023-03-24T01:20:33.700Z,99717.81
2023-03-24T01:23:00.491Z,99707.84
2023-03-24T01:25:28.009Z,99698.38
2023-03-24T01:27:54.818Z,99704.72
2023-03-24T01:30:21.589Z,99707.16
2023-03-24T01:32:48.377Z,99698.31
2023-03-24T01:35:15.240Z,99704.72
2023-03-24T01:37:42.029Z,99699.47
2023-03-24T01:40:09.841Z,99702.69
2023-03-24T01:42:36.690Z,99696.13
2023-03-24T01:45:03.486Z,99691.28
2023-03-24T01:47:30.279Z,99684.78
2023-03-24T01:49:57.071Z,99683.72
2023-03-24T01:52:23.853Z,99675.84
2023-03-24T01:54:50.708Z,99667.91
2023-03-24T01:57:17.834Z,99674.78
2023-03-24T01:59:44.636Z,99665.63
2023-03-24T02:02:13.687Z,99659.94
2023-03-24T02:04:40.473Z,99654.16
2023-03-24T02:07:07.350Z,99651.78
2023-03-24T02:09:34.105Z,99646.00
2023-03-24T02:12:00.954Z,99647.97
2023-03-24T02:14:27.747Z,99635.41
2023-03-24T02:16:54.518Z,99632.00
2023-03-24T02:19:25.146Z,99634.91
2023-03-24T02:21:52.142Z,99632.78
2023-03-24T02:24:18.893Z,99625.94
2023-03-24T02:26:46.075Z,99621.72
2023-03-24T02:29:12.861Z,99618.88
2023-03-24T02:31:39.649Z,99611.44
2023-03-24T02:34:06.462Z,99600.59
2023-03-24T02:36:33.395Z,99600.66
2023-03-24T02:39:00.374Z,99591.63
2023-03-24T02:41:27.171Z,99588.94
2023-03-24T02:43:53.992Z,99590.09
2023-03-24T02:46:20.789Z,99583.06
2023-03-24T02:48:47.604Z,99580.25
2023-03-24T02:51:14.421Z,99575.06
2023-03-24T02:53:41.190Z,99564.41
2023-03-24T02:56:07.988Z,99573.19
2023-03-24T02:58:35.294Z,99564.09
2023-03-24T03:01:03.241Z,99567.94
2023-03-24T03:03:30.923Z,99564.28
2023-03-24T03:05:58.619Z,99560.56
2023-03-24T03:08:25.388Z,99554.63
2023-03-24T03:10:52.171Z,99544.34
2023-03-24T03:13:19.014Z,99534.91
2023-03-24T03:15:46.070Z,99524.84
2023-03-24T03:18:14.175Z,99523.41
2023-03-24T03:20:42.709Z,99518.59
2023-03-24T03:23:09.543Z,99516.94
2023-03-24T03:25:38.492Z,99522.50
2023-03-24T03:28:05.468Z,99527.47
2023-03-24T03:30:33.627Z,99528.59
2023-03-24T03:33:00.418Z,99525.88
2023-03-24T03:35:27.233Z,99515.63
2023-03-24T03:37:54.036Z,99504.56
2023-03-24T03:40:20.825Z,99509.06
2023-03-24T03:42:47.631Z,99519.91
2023-03-24T03:45:14.538Z,99514.56
2023-03-24T03:47:41.376Z,99517.38
2023-03-24T03:50:08.673Z,99511.09
2023-03-24T03:52:35.436Z,99508.00
2023-03-24T03:55:02.203Z,99500.09
2023-03-24T03:57:29.054Z,99502.75
2023-03-24T03:59:56.532Z,99514.50
2023-03-24T04:02:26.758Z,99503.56
2023-03-24T04:05:05.271Z,99506.06
2023-03-24T04:07:33.559Z,99515.59
2023-03-24T04:10:00.481Z,99504.91
2023-03-24T04:12:27.255Z,99510.16
2023-03-24T04:14:54.082Z,99510.97
2023-03-24T04:17:20.934Z,99501.22
2023-03-24T04:19:47.855Z,99501.66
2023-03-24T04:22:14.608Z,99504.50
2023-03-24T04:24:41.545Z,99499.31
2023-03-24T04:27:09.228Z,99503.44
2023-03-24T04:29:36.895Z,99498.34
2023-03-24T04:32:03.758Z,99498.06
2023-03-24T04:34:30.687Z,99490.91
2023-03-24T04:36:57.530Z,99485.25
2023-03-24T04:39:28.022Z,99492.44
2023-03-24T04:41:54.832Z,99488.56
2023-03-24T04:44:22.539Z,99488.13
2023-03-24T04:46:49.301Z,99483.44
2023-03-24T04:49:16.196Z,99473.19
2023-03-24T04:51:42.927Z,99477.00
2023-03-24T04:54:09.731Z,99466.78
2023-03-24T04:56:36.506Z,99456.91
2023-03-24T04:59:03.279Z,99459.16
2023-03-24T05:01:30.843Z,99458.19
2023-03-24T05:03:57.841Z,99442.72
2023-03-24T05:06:24.763Z,99436.63
2023-03-24T05:08:52.202Z,99442.81
2023-03-24T05:11:18.991Z,99430.25
2023-03-24T05:13:46.822Z,99418.44
2023-03-24T05:16:13.636Z,99421.41
2023-03-24T05:18:40.371Z,99408.25
2023-03-24T05:21:07.563Z,99413.66
2023-03-24T05:23:34.334Z,99403.31
2023-03-24T05:26:01.300Z,99406.97
2023-03-24T05:28:28.073Z,99404.31
2023-03-24T05:30:54.861Z,99404.66
2023-03-24T05:33:21.808Z,99404.19
2023-03-24T05:35:48.821Z,99407.13
2023-03-24T05:38:15.784Z,99405.88
2023-03-24T05:40:42.538Z,99407.34
2023-03-24T05:43:09.807Z,99406.44
2023-03-24T05:45:36.933Z,99403.13
2023-03-24T05:48:03.707Z,99393.81
2023-03-24T05:50:30.707Z,99395.50
2023-03-24T05:52:57.543Z,99398.34
2023-03-24T05:55:25.051Z,99393.53
2023-03-24T05:57:51.832Z,99391.50
2023-03-24T06:00:18.706Z,99393.88
2023-03-24T06:02:45.560Z,99391.97
2023-03-24T06:05:12.377Z,99398.53
2023-03-24T06:07:40.102Z,99382.63
2023-03-24T06:10:07.656Z,99383.47
2023-03-24T06:12:34.444Z,99382.41
2023-03-24T06:15:01.202Z,99376.28
2023-03-24T06:17:28.597Z,99371.56
2023-03-24T06:20:04.003Z,99366.78
2023-03-24T06:22:30.894Z,99361.47
2023-03-24T06:24:58.753Z,99367.72
2023-03-24T06:27:29.943Z,99365.63
2023-03-24T06:29:56.878Z,99358.31
2023-03-24T06:32:23.653Z,99345.75
2023-03-24T06:34:50.716Z,99348.50
2023-03-24T06:37:17.454Z,99340.53
2023-03-24T06:39:44.289Z,99344.28
2023-03-24T06:42:11.089Z,99341.19
2023-03-24T06:44:37.944Z,99343.13
2023-03-24T06:47:04.680Z,99347.63
2023-03-24T06:49:32.020Z,99354.88
2023-03-24T06:51:58.770Z,99359.13
2023-03-24T06:54:25.537Z,99342.66
2023-03-24T06:56:52.863Z,99347.72
2023-03-24T06:59:23.616Z,99345.38
2023-03-24T07:01:50.485Z,99344.84
2023-03-24T07:04:17.423Z,99359.94
2023-03-24T07:07:00.895Z,99361.50
2023-03-24T07:09:32.659Z,99366.38
2023-03-24T07:11:59.478Z,99362.88
2023-03-24T07:14:26.378Z,99372.19
2023-03-24T07:16:53.631Z,99371.75
2023-03-24T07:19:20.900Z,99367.31
2023-03-24T07:21:49.963Z,99350.78
2023-03-24T07:24:16.940Z,99346.13
2023-03-24T07:26:43.745Z,99346.91
2023-03-24T07:29:11.245Z,99346.78
2023-03-24T07:31:39.502Z,99333.91
2023-03-24T07:34:06.357Z,99334.69
2023-03-24T07:36:33.151Z,99329.91
2023-03-24T07:39:00.611Z,99342.03
2023-03-24T07:41:29.169Z,99347.38
2023-03-24T07:43:56.369Z,99346.94
2023-03-24T07:46:23.278Z,99351.09
2023-03-24T07:48:50.174Z,99353.25
2023-03-24T07:51:19.689Z,99354.78
2023-03-24T07:53:47.644Z,99361.34
2023-03-24T07:56:14.407Z,99364.78
2023-03-24T07:58:41.205Z,99355.59
2023-03-24T08:01:10.236Z,99362.41
2023-03-24T08:03:37.175Z,99373.53
2023-03-24T08:06:04.054Z,99368.94
2023-03-24T08:08:31.651Z,99369.88
2023-03-24T08:10:58.511Z,99375.00
2023-03-24T08:13:25.426Z,99369.44
2023-03-24T08:15:53.139Z,99379.31
2023-03-24T08:18:21.190Z,99384.91
2023-03-24T08:20:47.964Z,99374.81
2023-03-24T08:23:14.782Z,99379.44
2023-03-24T08:25:41.882Z,99384.34
2023-03-24T08:28:08.631Z,99388.25
2023-03-24T08:30:36.020Z,99378.50
2023-03-24T08:33:02.950Z,99385.25
2023-03-24T08:35:29.724Z,99379.72
2023-03-24T08:37:56.697Z,99385.38
2023-03-24T08:40:23.954Z,99388.88
2023-03-24T08:42:51.000Z,99392.25
2023-03-24T08:45:20.935Z,99398.75
2023-03-24T08:47:47.854Z,99406.84
2023-03-24T08:50:14.771Z,99401.22
2023-03-24T08:52:41.942Z,99413.53
2023-03-24T08:55:09.993Z,99423.22
2023-03-24T08:57:36.780Z,99415.91
2023-03-24T09:00:09.857Z,99430.50
2023-03-24T09:02:36.624Z,99442.25
2023-03-24T09:05:03.499Z,99458.34
2023-03-24T09:07:30.591Z,99462.75
2023-03-24T09:09:57.334Z,99462.31
2023-03-24T09:12:24.084Z,99479.28
2023-03-24T09:14:50.943Z,99480.28
2023-03-24T09:17:17.710Z,99463.91
2023-03-24T09:19:44.671Z,99449.84
2023-03-24T09:22:11.427Z,99460.00
2023-03-24T09:24:38.182Z,99459.47
2023-03-24T09:27:05.030Z,99466.72
2023-03-24T09:29:31.814Z,99458.31
2023-03-24T09:31:58.575Z,99459.41
2023-03-24T09:34:25.740Z,99469.47
2023-03-24T09:36:52.542Z,99466.78
2023-03-24T09:39:20.204Z,99473.91
2023-03-24T09:41:48.397Z,99478.31
2023-03-24T09:44:15.148Z,99488.72
2023-03-24T09:46:41.909Z,99485.03
2023-03-24T09:49:08.750Z,99484.78
2023-03-24T09:51:35.574Z,99482.63
2023-03-24T09:54:02.337Z,99483.16
2023-03-24T09:56:31.999Z,99482.56
2023-03-24T09:58:58.790Z,99478.34
2023-03-24T10:01:26.378Z,99482.78
2023-03-24T10:03:53.261Z,99479.63
2023-03-24T10:06:22.688Z,99481.78
2023-03-24T10:08:50.127Z,99483.38
2023-03-24T10:11:16.893Z,99486.97
2023-03-24T10:13:43.810Z,99482.59
2023-03-24T10:16:10.608Z,99498.63
2023-03-24T10:18:37.434Z,99493.25
2023-03-24T10:21:04.189Z,99500.03
2023-03-24T10:23:30.950Z,99493.16
2023-03-24T10:25:57.692Z,99494.97
2023-03-24T10:28:24.468Z,99502.88
2023-03-24T10:30:51.276Z,99499.25
2023-03-24T10:33:18.086Z,99496.16
2023-03-24T10:35:45.505Z,99499.09
2023-03-24T10:38:12.741Z,99499.22
2023-03-24T10:40:39.478Z,99501.19
2023-03-24T10:43:09.815Z,99504.88
2023-03-24T10:45:36.829Z,99495.84
2023-03-24T10:48:04.048Z,99496.13
2023-03-24T10:50:30.882Z,99508.41
2023-03-24T10:52:57.643Z,99511.03
2023-03-24T10:55:24.410Z,99512.25
2023-03-24T10:57:51.171Z,99508.78
2023-03-24T11:00:19.191Z,99528.06
2023-03-24T11:02:46.144Z,99522.44
2023-03-24T11:05:12.946Z,99528.31
2023-03-24T11:07:40.575Z,99524.41
2023-03-24T11:10:07.981Z,99527.53
2023-03-24T11:12:34.822Z,99520.38
2023-03-24T11:15:17.542Z,99523.34
2023-03-24T11:17:47.631Z,99511.59
2023-03-24T11:20:14.430Z,99525.63
2023-03-24T11:22:41.214Z,99541.81
2023-03-24T11:25:08.088Z,99540.53
2023-03-24T11:27:34.867Z,99543.63
2023-03-24T11:30:01.632Z,99534.44
2023-03-24T11:32:29.853Z,99533.88
2023-03-24T11:34:57.452Z,99524.31
2023-03-24T11:37:24.203Z,99530.06
2023-03-24T11:39:50.956Z,99524.56
2023-03-24T11:42:18.271Z,99526.59
2023-03-24T11:44:45.371Z,99529.09
2023-03-24T11:47:12.224Z,99527.59
2023-03-24T11:49:38.967Z,99519.22
2023-03-24T11:52:06.028Z,99507.06
2023-03-24T11:54:33.218Z,99498.97
2023-03-24T11:57:00.809Z,99518.63
2023-03-24T11:59:31.781Z,99524.75
2023-03-24T12:01:58.573Z,99534.31
2023-03-24T12:04:25.314Z,99535.53
2023-03-24T12:06:52.099Z,99530.06
2023-03-24T12:09:19.013Z,99528.19
2023-03-24T12:11:46.159Z,99540.41
2023-03-24T12:14:12.898Z,99535.81
2023-03-24T12:16:40.387Z,99538.75
2023-03-24T12:19:07.452Z,99549.22
2023-03-24T12:21:34.220Z,99536.31
2023-03-24T12:24:02.455Z,99541.22
2023-03-24T12:26:29.342Z,99553.66
2023-03-24T12:28:56.153Z,99547.91
2023-03-24T12:31:23.039Z,99546.56
2023-03-24T12:33:49.828Z,99556.31
2023-03-24T12:36:16.644Z,99553.56
2023-03-24T12:38:43.457Z,99559.03
2023-03-24T12:41:10.194Z,99564.44
2023-03-24T12:43:36.949Z,99579.69
2023-03-24T12:46:05.916Z,99583.88
2023-03-24T12:48:32.690Z,99616.13
2023-03-24T12:50:59.441Z,99639.09
2023-03-24T12:53:26.312Z,99653.31
2023-03-24T12:55:53.068Z,99639.38
2023-03-24T12:58:19.813Z,99621.06
2023-03-24T13:00:46.597Z,99652.06
2023-03-24T13:03:13.426Z,99649.97
2023-03-24T13:05:40.249Z,99642.69
2023-03-24T13:08:08.213Z,99624.38
2023-03-24T13:10:40.207Z,99624.84
2023-03-24T13:13:07.016Z,99609.84
2023-03-24T13:15:33.846Z,99596.19
2023-03-24T13:18:00.753Z,99579.34
2023-03-24T13:20:27.580Z,99559.22
2023-03-24T13:22:54.365Z,99540.59
2023-03-24T13:25:21.116Z,99526.34
2023-03-24T13:27:47.860Z,99522.75
2023-03-24T13:30:14.693Z,99521.31
2023-03-24T13:32:41.688Z,99524.31
2023-03-24T13:35:09.954Z,99532.78
2023-03-24T13:37:37.328Z,99548.06
2023-03-24T13:40:04.601Z,99549.00
2023-03-24T13:42:31.655Z,99543.66
2023-03-24T13:44:59.333Z,99543.84
2023-03-24T13:47:32.171Z,99554.97
2023-03-24T13:49:58.942Z,99564.50
2023-03-24T13:52:25.919Z,99566.47
2023-03-24T13:54:52.664Z,99570.22
2023-03-24T13:57:20.579Z,99559.09
2023-03-24T13:59:47.392Z,99560.03
2023-03-24T14:02:14.254Z,99565.72
2023-03-24T14:04:41.437Z,99561.91
2023-03-24T14:07:08.197Z,99564.88
2023-03-24T14:09:35.333Z,99570.78
2023-03-24T14:12:02.082Z,99570.78
2023-03-24T14:14:29.369Z,99571.59
2023-03-24T14:16:56.250Z,99562.00
2023-03-24T14:19:23.054Z,99559.31
2023-03-24T14:21:49.833Z,99558.84
2023-03-24T14:24:17.342Z,99552.03
2023-03-24T14:26:44.239Z,99551.94
2023-03-24T14:29:11.071Z,99557.59
2023-03-24T14:31:38.014Z,99558.25
2023-03-24T14:34:05.629Z,99561.38
2023-03-24T14:36:32.884Z,99564.00
2023-03-24T14:39:00.195Z,99568.41
2023-03-24T14:41:26.952Z,99566.91
2023-03-24T14:43:54.424Z,99568.81
2023-03-24T14:46:21.293Z,99573.34
2023-03-24T14:48:48.110Z,99577.03
2023-03-24T14:51:14.888Z,99581.06
2023-03-24T14:53:41.653Z,99581.78
2023-03-24T14:56:08.405Z,99585.03
2023-03-24T14:58:35.850Z,99581.44
2023-03-24T15:01:07.279Z,99573.94
2023-03-24T15:03:38.038Z,99577.97
2023-03-24T15:06:04.964Z,99571.28
2023-03-24T15:08:31.813Z,99570.81
2023-03-24T15:11:01.050Z,99576.84
2023-03-24T15:13:27.840Z,99568.66
2023-03-24T15:15:54.627Z,99579.88
2023-03-24T15:18:25.403Z,99568.88
2023-03-24T15:20:52.289Z,99579.44
2023-03-24T15:23:19.107Z,99581.13
2023-03-24T15:25:47.663Z,99569.94
2023-03-24T15:28:14.410Z,99571.25
2023-03-24T15:30:41.165Z,99578.28
2023-03-24T15:33:08.039Z,99579.88
2023-03-24T15:35:34.908Z,99570.66
2023-03-24T15:38:01.705Z,99571.81
2023-03-24T15:40:31.482Z,99565.91
2023-03-24T15:42:58.299Z,99575.41
2023-03-24T15:45:25.298Z,99575.09
2023-03-24T15:47:52.204Z,99560.38
2023-03-24T15:50:18.975Z,99564.88
2023-03-24T15:52:45.718Z,99558.44
2023-03-24T15:55:12.478Z,99568.03
2023-03-24T15:57:40.390Z,99573.88
2023-03-24T16:00:11.942Z,99569.53
2023-03-24T16:02:39.172Z,99567.91
2023-03-24T16:05:11.192Z,99582.81
2023-03-24T16:07:40.523Z,99569.16
2023-03-24T16:10:08.582Z,99570.13
2023-03-24T16:12:35.522Z,99576.78
2023-03-24T16:15:04.776Z,99566.19
2023-03-24T16:17:31.570Z,99571.75
2023-03-24T16:19:58.343Z,99562.53
2023-03-24T16:22:25.328Z,99575.09
2023-03-24T16:24:52.134Z,99566.25
2023-03-24T16:27:18.951Z,99581.31
2023-03-24T16:29:45.783Z,99588.41
2023-03-24T16:32:12.587Z,99585.84
2023-03-24T16:34:39.384Z,99582.41
2023-03-24T16:37:07.802Z,99588.28
2023-03-24T16:39:34.589Z,99597.50
2023-03-24T16:42:01.419Z,99591.13
2023-03-24T16:44:28.224Z,99586.63
2023-03-24T16:46:55.359Z,99586.78
2023-03-24T16:49:22.302Z,99591.25
2023-03-24T16:51:49.148Z,99592.50
2023-03-24T16:54:15.980Z,99593.69
2023-03-24T16:56:42.811Z,99593.03
2023-03-24T16:59:10.489Z,99588.97
2023-03-24T17:01:38.047Z,99588.16
2023-03-24T17:04:05.012Z,99595.88
2023-03-24T17:06:31.828Z,99609.28
2023-03-24T17:08:58.618Z,99607.38
2023-03-24T17:11:25.469Z,99612.72
2023-03-24T17:13:53.671Z,99610.91
2023-03-24T17:16:20.553Z,99617.66
2023-03-24T17:18:47.303Z,99626.50
2023-03-24T17:21:14.108Z,99623.94
2023-03-24T17:23:40.886Z,99620.13
2023-03-24T17:26:07.708Z,99631.03
2023-03-24T17:28:34.471Z,99633.78
2023-03-24T17:31:01.726Z,99630.59
2023-03-24T17:33:28.514Z,99634.66
2023-03-24T17:35:55.432Z,99629.19
2023-03-24T17:38:22.254Z,99639.22
2023-03-24T17:40:49.230Z,99645.94
2023-03-24T17:43:16.129Z,99643.06
2023-03-24T17:45:42.897Z,99640.97
2023-03-24T17:48:09.707Z,99651.50
2023-03-24T17:50:36.525Z,99652.78
2023-03-24T17:53:03.432Z,99651.69
2023-03-24T17:55:30.201Z,99655.00
2023-03-24T17:57:57.013Z,99652.88
2023-03-24T18:00:24.139Z,99649.69
2023-03-24T18:02:51.040Z,99651.59
2023-03-24T18:05:17.830Z,99654.28
2023-03-24T18:07:44.585Z,99658.53
2023-03-24T18:10:11.607Z,99664.41
2023-03-24T18:12:38.469Z,99670.50
2023-03-24T18:15:06.898Z,99674.81
2023-03-24T18:17:33.873Z,99711.34
2023-03-24T18:20:09.768Z,99729.63
2023-03-24T18:22:37.103Z,99710.72
2023-03-24T18:25:03.926Z,99712.03
2023-03-24T18:27:30.731Z,99707.72
2023-03-24T18:29:57.482Z,99700.44
2023-03-24T18:32:24.321Z,99707.13
2023-03-24T18:34:51.124Z,99703.88
2023-03-24T18:37:18.077Z,99701.47
2023-03-24T18:39:44.847Z,99713.78
2023-03-24T18:42:11.649Z,99712.25
2023-03-24T18:44:38.385Z,99720.06
2023-03-24T18:47:05.232Z,99718.56
2023-03-24T18:49:32.062Z,99730.25
2023-03-24T18:51:58.789Z,99752.56
2023-03-24T18:54:25.781Z,99754.44
2023-03-24T18:56:52.629Z,99751.06
2023-03-24T18:59:19.466Z,99762.59
2023-03-24T19:01:48.388Z,99752.59
2023-03-24T19:04:15.360Z,99756.25
2023-03-24T19:06:42.398Z,99753.72
2023-03-24T19:09:09.590Z,99754.38
2023-03-24T19:11:36.358Z,99733.13
2023-03-24T19:14:03.877Z,99735.72
2023-03-24T19:16:30.696Z,99756.81
2023-03-24T19:19:00.886Z,99761.66
2023-03-24T19:21:27.785Z,99767.38
2023-03-24T19:23:54.598Z,99786.63
2023-03-24T19:26:21.561Z,99785.19
2023-03-24T19:28:48.384Z,99789.00
2023-03-24T19:31:15.425Z,99791.91
2023-03-24T19:33:42.304Z,99782.13
2023-03-24T19:36:09.303Z,99788.28
2023-03-24T19:38:36.189Z,99779.38
2023-03-24T19:41:02.968Z,99786.78
2023-03-24T19:43:29.703Z,99760.25
2023-03-24T19:45:56.504Z,99692.66
2023-03-24T19:48:23.322Z,99701.66
2023-03-24T19:50:50.427Z,99710.75
2023-03-24T19:53:17.221Z,99710.09
2023-03-24T19:55:44.046Z,99705.56
2023-03-24T19:58:10.986Z,99708.59
2023-03-24T20:00:37.733Z,99718.13
2023-03-24T20:03:04.570Z,99710.13
2023-03-24T20:05:31.362Z,99720.28
2023-03-24T20:08:00.021Z,99721.19
2023-03-24T20:10:26.924Z,99719.44
2023-03-24T20:12:53.734Z,99723.59
2023-03-24T20:15:20.779Z,99732.31
2023-03-24T20:17:47.678Z,99729.25
2023-03-24T20:20:14.502Z,99731.22
2023-03-24T20:22:45.711Z,99734.13
2023-03-24T20:25:12.495Z,99740.88
2023-03-24T20:27:39.281Z,99735.00
2023-03-24T20:30:06.037Z,99731.06
2023-03-24T20:32:32.853Z,99728.13
2023-03-24T20:34:59.860Z,99738.38
2023-03-24T20:37:27.582Z,99742.03
2023-03-24T20:39:54.363Z,99748.03
2023-03-24T20:42:24.100Z,99753.59
2023-03-24T20:44:51.040Z,99744.97
2023-03-24T20:47:19.376Z,99742.00
2023-03-24T20:49:46.271Z,99744.91
2023-03-24T20:52:14.247Z,99751.22
2023-03-24T20:54:41.493Z,99750.09
2023-03-24T20:57:09.390Z,99752.56
2023-03-24T20:59:37.773Z,99746.06
2023-03-24T21:02:05.948Z,99739.00
2023-03-24T21:04:32.726Z,99746.25
2023-03-24T21:06:59.462Z,99750.31
2023-03-24T21:09:26.368Z,99752.53
2023-03-24T21:11:53.177Z,99754.72
2023-03-24T21:14:19.919Z,99744.75
2023-03-24T21:16:47.216Z,99764.09
2023-03-24T21:19:14.519Z,99748.78
2023-03-24T21:21:42.720Z,99742.53
2023-03-24T21:24:09.508Z,99744.75
2023-03-24T21:26:36.250Z,99750.44
2023-03-24T21:29:03.075Z,99751.25
2023-03-24T21:31:29.851Z,99756.22
2023-03-24T21:33:56.591Z,99752.06
2023-03-24T21:36:23.412Z,99760.41
2023-03-24T21:38:51.675Z,99756.56
2023-03-24T21:41:18.431Z,99759.22
2023-03-24T21:43:46.662Z,99753.72
2023-03-24T21:46:14.833Z,99745.47
2023-03-24T21:48:51.025Z,99751.56
2023-03-24T21:51:18.633Z,99741.47
2023-03-24T21:53:45.415Z,99741.53
2023-03-24T21:56:12.151Z,99746.47
2023-03-24T21:58:39.352Z,99740.28
2023-03-24T22:01:06.091Z,99742.22
2023-03-24T22:03:34.442Z,99728.00
2023-03-24T22:06:01.327Z,99732.19
2023-03-24T22:08:30.478Z,99722.28
2023-03-24T22:11:00.032Z,99723.50
2023-03-24T22:13:26.793Z,99720.44
2023-03-24T22:15:54.819Z,99714.28
2023-03-24T22:18:21.597Z,99717.63
2023-03-24T22:20:48.412Z,99713.84
2023-03-24T22:23:15.434Z,99708.75
2023-03-24T22:25:42.215Z,99710.44
2023-03-24T22:28:08.973Z,99704.69
2023-03-24T22:30:35.808Z,99694.72
2023-03-24T22:33:02.672Z,99704.69
2023-03-24T22:35:29.615Z,99691.84
2023-03-24T22:37:56.433Z,99693.16
2023-03-24T22:40:23.231Z,99689.72
2023-03-24T22:42:50.141Z,99689.09
2023-03-24T22:45:16.876Z,99700.22
2023-03-24T22:47:43.665Z,99690.00
2023-03-24T22:50:10.516Z,99689.81
2023-03-24T22:52:37.314Z,99693.59
2023-03-24T22:55:04.107Z,99695.03
2023-03-24T22:57:30.864Z,99692.94
2023-03-24T23:00:01.622Z,99698.00
2023-03-24T23:02:28.919Z,99690.59
2023-03-24T23:04:56.094Z,99692.59
2023-03-24T23:07:22.867Z,99681.91
2023-03-24T23:09:49.866Z,99692.88
2023-03-24T23:12:16.619Z,99688.78
2023-03-24T23:14:46.143Z,99691.59
2023-03-24T23:17:13.102Z,99679.38
2023-03-24T23:19:39.931Z,99683.38
2023-03-24T23:22:08.198Z,99674.56
2023-03-24T23:24:39.124Z,99667.81
2023-03-24T23:27:06.394Z,99671.81
2023-03-24T23:29:33.192Z,99675.47
2023-03-24T23:32:00.163Z,99667.63
2023-03-24T23:34:27.271Z,99666.34
2023-03-24T23:36:54.008Z,99663.16
2023-03-24T23:39:20.751Z,99662.66
2023-03-24T23:41:47.518Z,99672.81
2023-03-24T23:44:14.749Z,99671.47
2023-03-24T23:46:41.595Z,99676.28
2023-03-24T23:49:08.415Z,99671.25
2023-03-24T23:51:35.160Z,99669.44
2023-03-24T23:54:01.923Z,99676.41
2023-03-24T23:56:30.422Z,99674.50
2023-03-24T23:58:57.190Z,99671.56
